Aviation Digital Data Service (ADDS)

Output produced by METARs form (1145 UTC 18 June 2019)
found at http://www.aviationweather.gov/metar/data/
 
Forecast for: HLLM (MITIGA , LY)
Text: TAF HLLM 180500Z 1806/1905 04015KT 8000 SCT030 SCT070
Forecast period: 0600 UTC 18 June 2019 to 0500 UTC 19 June 2019
Forecast type: FROM: standard forecast or significant change
Winds: from the NE (40 degrees) at 17 MPH (15 knots; 7.7 m/s)
Visibility: 5 miles (8 km)
Ceiling: at least 12,000 feet AGL
Clouds: scattered clouds at 3000 feet AGL
scattered clouds at 7000 feet AGL
Weather: no significant weather forecast for this period
Text: PROB30
Forecast period: 0600 to 1200 UTC 18 June 2019
Forecast type: TEMPORARY: The following changes expected for less than half the time period
Visibility: 4 miles (6 km)
Ceiling: 7000 feet AGL
Clouds: scattered clouds at 2500 feet AGL
broken clouds at 7000 feet AGL
Weather: RA  (moderate rain)